Flight Track Log - Related Links

Times and Time Zones

All times are in EDT time to prevent confusion due to time zone crossing. See the N3511F flight status page for this flight to view local times or setup timezone preferences in your user account.

Time Position Orientation Groundspeed Altitude Reporting Facility
EDT Latitude Longitude Course Direction KTS MPH feet Rate Location/Type
Sun 09:00:31 AM 41.8714 -71.0108 156° South 68 78 300  Level Boston Center
Sun 09:00:34 AM 41.8694 -71.0058 118° Southeast 91 105 400 1,111 Climbing Boston Center
Sun 09:00:58 AM 41.8650 -70.9956 120° Southeast 97 112 800 947 Climbing Boston Center
Sun 09:01:31 AM 41.8569 -70.9817 128° Southeast 92 106 1,300 909 Climbing Boston Center
Sun 09:03:00 AM 41.8158 -70.9596 158° South  Level FlightAware Approximate
Sun 09:05:00 AM 41.6973 -70.8672 156° South  Level Estimated
Sun 09:10:00 AM 41.6363 -70.8174 146° Southeast  Level FlightAware Approximate
Sun 09:11:00 AM 41.6116 -70.7949 143° Southeast  Level FlightAware Approximate
Sun 09:12:00 AM 41.5876 -70.7709 143° Southeast  Level FlightAware Approximate
Sun 09:13:00 AM 41.5637 -70.7470 143° Southeast  Level FlightAware Approximate
Sun 09:14:00 AM 41.5398 -70.7231 143° Southeast  Level FlightAware Approximate
Sun 09:15:00 AM 41.5134 -70.7047 156° South  Level FlightAware Approximate
Sun 09:16:00 AM 41.4861 -70.6883 156° South  Level FlightAware Approximate
Sun 09:17:00 AM 41.4589 -70.6720 156° South  Level FlightAware Approximate
Sun 09:18:00 AM 41.4339 -70.6505 143° Southeast  Level FlightAware Approximate
Sun 09:19:00 AM 41.4100 -70.6266 143° Southeast  Level FlightAware Approximate
Sun 09:20:00 AM 41.3934 -70.6139 143° Southeast  Level Estimated
Sun 09:21:00 AM 41.3934 -70.6139 North  Level Estimated
Sun 09:22:00 AM 41.3934 -70.6139 North  Level Estimated
Sun 09:23:00 AM 41.3934 -70.6139 North  Level Estimated
Sun 09:24:00 AM 41.3934 -70.6139 North  Level Estimated
Sun 09:25:00 AM 41.3934 -70.6139 North  Level Estimated
Sun 09:26:00 AM 41.3934 -70.6139 North  Level Estimated
Sun 09:27:00 AM 41.3934 -70.6139 North  Level Estimated
Sun 09:28:00 AM 41.3934 -70.6139 North  Level Estimated
Sun 09:29:00 AM 41.3934 -70.6139 North  Level Estimated
Sun 09:30:00 AM 41.3934 -70.6139 North  Level Estimated
Sun 09:31:00 AM 41.3934 -70.6139 North  Level Estimated
Sun 09:32:00 AM 41.3934 -70.6139 North  Level Estimated

Login

Don't have an account? Register now (free) for customized features, flight alerts, and more!